createdAt,value
2022-09-01T00:01:31.926Z,13.73
2022-09-01T00:04:03.267Z,13.60
2022-09-01T00:06:34.232Z,13.20
2022-09-01T00:09:09.350Z,13.73
2022-09-01T00:11:38.231Z,14.27
2022-09-01T00:14:09.895Z,14.95
2022-09-01T00:16:58.353Z,14.90
2022-09-01T00:19:26.881Z,15.55
2022-09-01T00:21:55.256Z,15.57
2022-09-01T00:24:26.181Z,16.05
2022-09-01T00:26:55.213Z,15.80
2022-09-01T00:29:26.635Z,15.35
2022-09-01T00:31:55.425Z,15.52
2022-09-01T00:34:25.145Z,15.50
2022-09-01T00:36:53.503Z,16.55
2022-09-01T00:39:21.920Z,16.05
2022-09-01T00:41:51.291Z,16.23
2022-09-01T00:44:24.706Z,17.48
2022-09-01T00:46:55.949Z,16.77
2022-09-01T00:49:31.560Z,16.67
2022-09-01T00:52:07.842Z,16.42
2022-09-01T00:54:41.289Z,17.52
2022-09-01T00:57:12.693Z,17.13
2022-09-01T00:59:48.376Z,17.10
2022-09-01T01:02:16.884Z,16.98
2022-09-01T01:04:46.627Z,17.38
2022-09-01T01:07:16.967Z,17.00
2022-09-01T01:09:47.470Z,16.92
2022-09-01T01:12:17.615Z,16.27
2022-09-01T01:14:50.614Z,18.27
2022-09-01T01:17:20.989Z,17.80
2022-09-01T01:20:10.983Z,18.15
2022-09-01T01:23:05.616Z,17.75
2022-09-01T01:25:40.975Z,18.00
2022-09-01T01:28:14.747Z,18.25
2022-09-01T01:30:48.878Z,18.25
2022-09-01T01:33:17.326Z,18.73
2022-09-01T01:35:47.069Z,18.42
2022-09-01T01:38:15.570Z,17.90
2022-09-01T01:40:45.441Z,17.88
2022-09-01T01:43:21.180Z,18.25
2022-09-01T01:45:52.070Z,19.52
2022-09-01T01:48:24.981Z,18.95
2022-09-01T01:50:55.004Z,19.30
2022-09-01T01:53:24.775Z,18.80
2022-09-01T01:55:56.068Z,19.33
2022-09-01T01:58:25.657Z,18.05
2022-09-01T02:00:55.304Z,18.67
2022-09-01T02:03:26.561Z,18.92
2022-09-01T02:08:26.148Z,18.63
2022-09-01T02:10:57.910Z,17.85
2022-09-01T02:13:28.557Z,18.40
2022-09-01T02:15:58.680Z,18.15
2022-09-01T02:18:31.094Z,18.90
2022-09-01T02:21:00.965Z,17.42
2022-09-01T02:23:30.108Z,19.27
2022-09-01T02:26:18.030Z,18.30
2022-09-01T02:28:54.817Z,16.40
2022-09-01T02:31:29.030Z,18.30
2022-09-01T02:34:01.976Z,17.30
2022-09-01T02:36:32.919Z,17.33
2022-09-01T02:39:02.612Z,18.10
2022-09-01T02:41:34.581Z,17.42
2022-09-01T02:44:04.175Z,15.90
2022-09-01T02:46:33.270Z,16.60
2022-09-01T02:49:04.621Z,15.95
2022-09-01T02:51:33.371Z,17.05
2022-09-01T02:54:02.226Z,16.27
2022-09-01T02:56:32.083Z,16.92
2022-09-01T02:59:03.050Z,16.85
2022-09-01T03:01:34.625Z,17.17
2022-09-01T03:04:08.126Z,16.50
2022-09-01T03:06:37.610Z,16.45
2022-09-01T03:09:08.574Z,17.20
2022-09-01T03:11:42.393Z,17.33
2022-09-01T03:14:10.875Z,16.50
2022-09-01T03:16:40.535Z,16.55
2022-09-01T03:19:09.753Z,16.98
2022-09-01T03:21:41.095Z,16.45
2022-09-01T03:24:12.456Z,16.95
2022-09-01T03:26:43.367Z,16.90
2022-09-01T03:29:12.102Z,15.52
2022-09-01T03:31:40.484Z,16.77
2022-09-01T03:34:11.133Z,16.75
2022-09-01T03:36:50.459Z,15.70
2022-09-01T03:39:27.840Z,15.90
2022-09-01T03:41:58.952Z,16.35
2022-09-01T03:44:28.502Z,16.10
2022-09-01T03:46:58.512Z,16.45
2022-09-01T03:49:27.934Z,16.00
2022-09-01T03:51:58.792Z,15.52
2022-09-01T03:54:30.577Z,15.73
2022-09-01T03:57:00.745Z,15.40
2022-09-01T03:59:30.681Z,15.40
2022-09-01T04:02:00.260Z,14.70
2022-09-01T04:04:31.507Z,15.02
2022-09-01T04:07:01.252Z,14.90
2022-09-01T04:09:30.962Z,14.18
2022-09-01T04:12:00.759Z,14.93
2022-09-01T04:14:29.856Z,14.30
2022-09-01T04:17:16.706Z,15.02
2022-09-01T04:19:45.001Z,14.27
2022-09-01T04:22:14.412Z,14.32
2022-09-01T04:24:45.814Z,14.85
2022-09-01T04:27:18.231Z,14.30
2022-09-01T04:29:47.826Z,14.95
2022-09-01T04:32:17.111Z,13.63
2022-09-01T04:34:51.708Z,15.68
2022-09-01T04:37:23.625Z,13.75
2022-09-01T04:39:57.547Z,14.55
2022-09-01T04:42:32.360Z,14.90
2022-09-01T04:45:10.477Z,13.50
2022-09-01T04:47:43.015Z,15.30
2022-09-01T04:50:17.727Z,14.82
2022-09-01T04:53:07.189Z,15.90
2022-09-01T04:55:50.260Z,14.90
2022-09-01T04:58:23.087Z,14.70
2022-09-01T05:00:53.115Z,14.93
2022-09-01T05:03:24.701Z,15.57
2022-09-01T05:06:18.731Z,15.93
2022-09-01T05:08:52.202Z,15.88
2022-09-01T05:11:39.958Z,15.55
2022-09-01T05:14:22.454Z,16.55
2022-09-01T05:16:53.994Z,16.75
2022-09-01T05:19:24.850Z,17.13
2022-09-01T05:21:54.732Z,17.10
2022-09-01T05:24:23.761Z,18.13
2022-09-01T05:26:52.642Z,17.88
2022-09-01T05:29:24.020Z,16.60
2022-09-01T05:31:56.226Z,17.00
2022-09-01T05:34:27.513Z,18.25
2022-09-01T05:36:59.692Z,18.00
2022-09-01T05:39:29.423Z,16.73
2022-09-01T05:41:59.527Z,17.65
2022-09-01T05:44:29.470Z,17.10
2022-09-01T05:47:00.381Z,15.82
2022-09-01T05:49:33.123Z,17.27
2022-09-01T05:52:04.943Z,16.35
2022-09-01T05:54:34.840Z,16.75
2022-09-01T05:57:30.434Z,16.80
2022-09-01T05:59:55.572Z,15.68
2022-09-01T06:02:27.555Z,17.42
2022-09-01T06:05:00.316Z,16.70
2022-09-01T06:07:36.564Z,15.30
2022-09-01T06:10:06.531Z,15.93
2022-09-01T06:12:36.065Z,15.52
2022-09-01T06:15:15.962Z,14.82
2022-09-01T06:17:49.040Z,15.30
2022-09-01T06:20:19.004Z,14.98
2022-09-01T06:22:48.930Z,15.35
2022-09-01T06:25:18.662Z,14.65
2022-09-01T06:27:49.047Z,15.10
2022-09-01T06:30:25.072Z,15.85
2022-09-01T06:33:06.034Z,14.13
2022-09-01T06:35:35.062Z,13.43
2022-09-01T06:38:04.846Z,14.68
2022-09-01T06:40:42.747Z,14.25
2022-09-01T06:43:17.259Z,15.02
2022-09-01T06:45:54.486Z,14.30
2022-09-01T06:48:24.972Z,13.98
2022-09-01T06:51:20.989Z,13.63
2022-09-01T06:53:59.208Z,12.45
2022-09-01T06:56:38.911Z,13.32
2022-09-01T06:59:15.461Z,13.73
2022-09-01T07:01:52.264Z,13.45
2022-09-01T07:04:25.629Z,13.23
2022-09-01T07:07:53.060Z,13.30
2022-09-01T07:10:23.363Z,11.82
2022-09-01T07:13:07.379Z,12.15
2022-09-01T07:18:32.205Z,11.98
2022-09-01T07:21:36.610Z,11.80
2022-09-01T07:24:13.453Z,11.75
2022-09-01T07:27:09.499Z,12.88
2022-09-01T07:29:41.604Z,11.10
2022-09-01T07:35:01.915Z,11.00
2022-09-01T07:43:45.106Z,10.45
2022-09-01T07:47:19.432Z,10.35
2022-09-01T07:52:32.582Z,9.85
2022-09-01T07:55:01.120Z,10.23
2022-09-01T07:57:29.678Z,10.75
2022-09-01T07:59:59.220Z,10.90
2022-09-01T08:02:43.987Z,9.85
2022-09-01T08:05:22.483Z,10.05
2022-09-01T08:07:52.435Z,10.18
2022-09-01T08:10:23.202Z,10.38
2022-09-01T08:12:56.606Z,11.20
2022-09-01T08:16:06.397Z,10.15
2022-09-01T08:18:15.023Z,9.70
2022-09-01T08:20:47.257Z,9.32
2022-09-01T08:23:37.819Z,9.63
2022-09-01T08:28:35.411Z,9.23
2022-09-01T08:31:11.217Z,9.13
2022-09-01T08:33:41.156Z,9.57
2022-09-01T08:36:12.292Z,9.57
2022-09-01T08:38:42.422Z,9.90
2022-09-01T08:41:19.996Z,9.38
2022-09-01T08:44:04.912Z,9.18
2022-09-01T08:46:36.246Z,9.63
2022-09-01T08:49:24.629Z,9.90
2022-09-01T08:52:27.796Z,9.13
2022-09-01T08:55:05.531Z,9.05
2022-09-01T08:57:36.502Z,9.07
2022-09-01T09:00:28.069Z,9.03
2022-09-01T09:03:11.064Z,8.60
2022-09-01T09:05:50.936Z,9.07
2022-09-01T09:08:40.908Z,8.52
2022-09-01T09:11:19.392Z,8.63
2022-09-01T09:14:00.087Z,9.13
2022-09-01T09:16:30.902Z,8.95
2022-09-01T09:19:05.563Z,8.73
2022-09-01T09:21:38.081Z,8.45
2022-09-01T09:24:19.333Z,8.45
2022-09-01T09:26:52.627Z,8.18
2022-09-01T09:29:22.044Z,8.60
2022-09-01T09:32:04.334Z,8.03
2022-09-01T09:34:36.628Z,8.50
2022-09-01T09:37:25.665Z,8.50
2022-09-01T09:40:10.635Z,8.60
2022-09-01T09:42:42.334Z,8.27
2022-09-01T09:47:54.693Z,8.45
2022-09-01T09:50:26.778Z,8.90
2022-09-01T09:53:14.357Z,9.02
2022-09-01T09:55:56.240Z,9.38
2022-09-01T09:58:29.203Z,9.38
2022-09-01T10:01:05.390Z,9.73
2022-09-01T10:03:41.586Z,10.07
2022-09-01T10:06:15.284Z,9.23
2022-09-01T10:08:48.598Z,9.32
2022-09-01T10:11:35.638Z,9.60
2022-09-01T10:14:11.048Z,9.88
2022-09-01T10:16:43.882Z,9.75
2022-09-01T10:19:16.604Z,10.20
2022-09-01T10:21:46.576Z,10.00
2022-09-01T10:24:27.014Z,9.75
2022-09-01T10:27:01.859Z,10.45
2022-09-01T10:32:31.817Z,9.00
2022-09-01T10:35:04.729Z,9.32
2022-09-01T10:37:34.929Z,9.18
2022-09-01T10:40:20.623Z,8.93
2022-09-01T10:42:53.958Z,7.70
2022-09-01T10:45:34.034Z,8.05
2022-09-01T10:48:33.825Z,8.25
2022-09-01T10:51:51.387Z,7.55
2022-09-01T10:54:52.618Z,7.60
2022-09-01T10:57:51.106Z,8.00
2022-09-01T11:03:53.557Z,7.28
2022-09-01T11:07:11.546Z,6.90
2022-09-01T11:09:37.049Z,7.18
2022-09-01T11:12:41.968Z,6.82
2022-09-01T11:15:36.853Z,7.20
2022-09-01T11:18:14.618Z,7.20
2022-09-01T11:20:46.670Z,6.07
2022-09-01T11:23:24.258Z,5.65
2022-09-01T11:28:44.511Z,5.38
2022-09-01T11:31:32.703Z,6.03
2022-09-01T11:34:16.921Z,5.80
2022-09-01T11:36:56.527Z,5.30
2022-09-01T11:39:43.952Z,5.25
2022-09-01T11:42:19.085Z,4.88
2022-09-01T11:44:53.163Z,4.63
2022-09-01T11:47:26.803Z,4.90
2022-09-01T11:49:59.754Z,4.57
2022-09-01T11:52:31.226Z,4.70
2022-09-01T11:55:00.621Z,4.95
2022-09-01T11:57:31.995Z,5.07
2022-09-01T12:00:01.981Z,4.90
2022-09-01T12:02:45.720Z,4.75
2022-09-01T12:05:29.443Z,4.50
2022-09-01T12:07:58.835Z,4.53
2022-09-01T12:10:34.837Z,4.50
2022-09-01T12:13:08.842Z,4.63
2022-09-01T12:15:50.389Z,4.03
2022-09-01T12:18:31.435Z,4.45
2022-09-01T12:21:03.305Z,4.20
2022-09-01T12:23:34.281Z,4.38
2022-09-01T12:26:05.319Z,3.95
2022-09-01T12:28:35.695Z,4.35
2022-09-01T12:31:07.807Z,3.97
2022-09-01T12:33:36.917Z,4.15
2022-09-01T12:36:26.819Z,4.68
2022-09-01T12:38:56.222Z,4.28
2022-09-01T12:41:28.724Z,4.18
2022-09-01T12:43:57.400Z,4.35
2022-09-01T12:46:46.721Z,4.05
2022-09-01T12:49:20.024Z,3.92
2022-09-01T12:51:50.993Z,4.00
2022-09-01T12:54:26.989Z,4.23
2022-09-01T12:56:55.830Z,4.03
2022-09-01T12:59:32.009Z,5.22
2022-09-01T13:02:34.683Z,4.25
2022-09-01T13:05:22.303Z,4.50
2022-09-01T13:07:56.941Z,4.20
2022-09-01T13:10:28.155Z,4.65
2022-09-01T13:12:58.048Z,4.50
2022-09-01T13:15:27.943Z,4.28
2022-09-01T13:17:56.341Z,4.63
2022-09-01T13:20:24.884Z,4.00
2022-09-01T13:22:54.784Z,4.43
2022-09-01T13:25:25.256Z,4.68
2022-09-01T13:27:54.988Z,4.75
2022-09-01T13:30:28.268Z,4.63
2022-09-01T13:35:45.804Z,4.65
2022-09-01T13:38:16.381Z,3.90
2022-09-01T13:40:47.727Z,4.18
2022-09-01T13:43:16.827Z,4.00
2022-09-01T13:45:45.391Z,4.10
2022-09-01T13:48:16.070Z,3.90
2022-09-01T13:53:34.852Z,4.03
2022-09-01T13:56:05.002Z,4.72
2022-09-01T13:58:33.299Z,4.05
2022-09-01T14:01:02.068Z,3.70
2022-09-01T14:03:32.261Z,3.80
2022-09-01T14:06:00.630Z,4.18
2022-09-01T14:08:29.307Z,3.30
2022-09-01T14:10:57.589Z,3.70
2022-09-01T14:13:28.182Z,3.45
2022-09-01T14:15:56.819Z,3.80
2022-09-01T14:18:36.737Z,3.78
2022-09-01T14:21:05.617Z,3.35
2022-09-01T14:23:33.907Z,3.72
2022-09-01T14:26:02.176Z,3.47
2022-09-01T14:28:31.852Z,3.83
2022-09-01T14:33:27.476Z,3.58
2022-09-01T14:35:56.218Z,3.75
2022-09-01T14:38:24.564Z,3.85
2022-09-01T14:40:53.305Z,3.15
2022-09-01T14:43:22.146Z,3.70
2022-09-01T14:45:52.352Z,3.92
2022-09-01T14:48:21.583Z,3.85
2022-09-01T14:50:50.984Z,3.85
2022-09-01T14:53:20.035Z,3.40
2022-09-01T14:55:49.716Z,3.72
2022-09-01T14:58:19.883Z,3.80
2022-09-01T15:00:48.263Z,4.28
2022-09-01T15:03:21.993Z,3.83
2022-09-01T15:05:51.517Z,3.70
2022-09-01T15:08:20.278Z,3.80
2022-09-01T15:10:49.208Z,3.50
2022-09-01T15:13:17.896Z,3.30
2022-09-01T15:15:46.329Z,3.33
2022-09-01T15:18:14.640Z,2.97
2022-09-01T15:20:47.825Z,2.97
2022-09-01T15:23:18.374Z,2.72
2022-09-01T15:25:47.302Z,2.83
2022-09-01T15:28:16.011Z,2.80
2022-09-01T15:30:45.494Z,2.97
2022-09-01T15:33:16.314Z,2.95
2022-09-01T15:35:46.484Z,2.60
2022-09-01T15:38:18.065Z,2.38
2022-09-01T15:40:57.968Z,2.58
2022-09-01T15:43:27.496Z,2.75
2022-09-01T15:45:56.607Z,3.05
2022-09-01T15:48:25.010Z,2.30
2022-09-01T15:50:55.164Z,2.85
2022-09-01T15:53:23.438Z,2.88
2022-09-01T15:55:51.653Z,2.70
2022-09-01T15:58:20.306Z,2.83
2022-09-01T16:00:48.685Z,2.80
2022-09-01T16:03:17.196Z,2.55
2022-09-01T16:05:45.667Z,2.47
2022-09-01T16:08:15.276Z,2.58
2022-09-01T16:10:43.517Z,2.50
2022-09-01T16:13:13.200Z,2.65
2022-09-01T16:15:49.908Z,2.85
2022-09-01T16:18:34.608Z,2.53
2022-09-01T16:21:10.997Z,2.83
2022-09-01T16:23:44.550Z,2.80
2022-09-01T16:26:13.260Z,2.30
2022-09-01T16:28:45.965Z,2.83
2022-09-01T16:31:17.896Z,2.47
2022-09-01T16:33:50.001Z,2.50
2022-09-01T16:36:37.848Z,2.35
2022-09-01T16:39:17.855Z,2.45
2022-09-01T16:41:56.097Z,2.30
2022-09-01T16:44:36.788Z,2.08
2022-09-01T16:47:19.074Z,2.58
2022-09-01T16:49:51.894Z,2.60
2022-09-01T16:52:24.262Z,2.67
2022-09-01T16:55:07.282Z,2.78
2022-09-01T16:57:43.105Z,2.70
2022-09-01T17:00:14.259Z,2.92
2022-09-01T17:02:50.372Z,3.30
2022-09-01T17:05:25.437Z,3.72
2022-09-01T17:08:07.755Z,4.05
2022-09-01T17:10:43.686Z,4.15
2022-09-01T17:13:20.206Z,3.90
2022-09-01T17:15:55.986Z,4.65
2022-09-01T17:18:33.415Z,4.65
2022-09-01T17:21:09.975Z,4.40
2022-09-01T17:23:46.277Z,5.22
2022-09-01T17:26:23.180Z,4.43
2022-09-01T17:28:56.375Z,4.60
2022-09-01T17:31:43.959Z,4.35
2022-09-01T17:34:31.142Z,4.05
2022-09-01T17:37:14.245Z,3.72
2022-09-01T17:39:50.805Z,3.80
2022-09-01T17:42:30.208Z,3.42
2022-09-01T17:45:10.101Z,3.78
2022-09-01T17:47:47.030Z,3.20
2022-09-01T17:50:20.949Z,3.60
2022-09-01T17:52:58.263Z,4.10
2022-09-01T17:55:42.850Z,3.83
2022-09-01T17:58:31.365Z,3.47
2022-09-01T18:01:05.823Z,3.60
2022-09-01T18:03:47.108Z,3.97
2022-09-01T18:06:28.568Z,4.18
2022-09-01T18:08:59.227Z,4.05
2022-09-01T18:11:34.934Z,4.65
2022-09-01T18:14:09.827Z,4.40
2022-09-01T18:16:44.418Z,4.55
2022-09-01T18:19:18.131Z,5.00
2022-09-01T18:21:51.569Z,5.25
2022-09-01T18:24:23.399Z,4.75
2022-09-01T18:26:53.190Z,4.45
2022-09-01T18:29:28.418Z,4.05
2022-09-01T18:32:17.976Z,4.32
2022-09-01T18:35:11.731Z,4.05
2022-09-01T18:37:52.178Z,4.00
2022-09-01T18:40:27.796Z,3.85
2022-09-01T18:43:03.623Z,3.50
2022-09-01T18:45:41.033Z,4.13
2022-09-01T18:48:19.102Z,3.95
2022-09-01T18:50:55.784Z,4.10
2022-09-01T18:53:34.277Z,5.70
2022-09-01T18:56:11.435Z,5.85
2022-09-01T18:58:54.229Z,5.88
2022-09-01T19:01:33.225Z,4.55
2022-09-01T19:04:10.410Z,4.50
2022-09-01T19:06:47.586Z,4.07
2022-09-01T19:09:22.598Z,4.13
2022-09-01T19:12:04.044Z,4.00
2022-09-01T19:14:38.630Z,3.60
2022-09-01T19:17:22.380Z,4.15
2022-09-01T19:19:57.569Z,3.63
2022-09-01T19:22:36.611Z,3.88
2022-09-01T19:25:25.787Z,3.25
2022-09-01T19:27:59.293Z,3.72
2022-09-01T19:30:27.691Z,3.72
2022-09-01T19:33:00.158Z,3.60
2022-09-01T19:35:30.973Z,4.15
2022-09-01T19:37:59.652Z,4.97
2022-09-01T19:40:36.860Z,3.58
2022-09-01T19:43:08.708Z,3.67
2022-09-01T19:45:48.897Z,3.28
2022-09-01T19:48:23.119Z,3.50
2022-09-01T19:50:56.609Z,3.38
2022-09-01T19:53:38.674Z,3.55
2022-09-01T19:56:11.438Z,3.22
2022-09-01T19:58:55.430Z,3.05
2022-09-01T20:01:37.793Z,3.28
2022-09-01T20:04:15.977Z,3.67
2022-09-01T20:06:53.647Z,3.13
2022-09-01T20:09:27.089Z,3.20
2022-09-01T20:12:02.035Z,3.30
2022-09-01T20:14:51.280Z,2.97
2022-09-01T20:17:24.944Z,2.95
2022-09-01T20:19:58.248Z,3.05
2022-09-01T20:22:36.405Z,3.10
2022-09-01T20:25:10.644Z,3.03
2022-09-01T20:27:49.139Z,2.80
2022-09-01T20:30:19.945Z,2.90
2022-09-01T20:32:56.817Z,2.80
2022-09-01T20:35:37.595Z,2.88
2022-09-01T20:38:33.508Z,3.10
2022-09-01T20:41:05.980Z,2.97
2022-09-01T20:43:40.062Z,2.80
2022-09-01T20:46:08.529Z,3.40
2022-09-01T20:48:40.077Z,2.75
2022-09-01T20:51:15.295Z,2.35
2022-09-01T20:54:02.410Z,2.67
2022-09-01T20:56:37.411Z,3.05
2022-09-01T20:59:11.433Z,2.60
2022-09-01T21:01:46.377Z,2.60
2022-09-01T21:04:30.643Z,3.28
2022-09-01T21:07:05.711Z,2.30
2022-09-01T21:09:42.333Z,2.78
2022-09-01T21:12:21.935Z,2.70
2022-09-01T21:15:02.010Z,2.60
2022-09-01T21:17:43.158Z,2.40
2022-09-01T21:20:19.050Z,2.67
2022-09-01T21:22:49.004Z,2.30
2022-09-01T21:25:17.419Z,2.72
2022-09-01T21:27:48.750Z,2.30
2022-09-01T21:30:17.590Z,2.97
2022-09-01T21:32:46.061Z,2.45
2022-09-01T21:35:16.615Z,2.50
2022-09-01T21:37:45.630Z,2.35
2022-09-01T21:40:16.314Z,2.28
2022-09-01T21:42:50.180Z,2.53
2022-09-01T21:45:20.145Z,2.05
2022-09-01T21:47:50.152Z,2.47
2022-09-01T21:50:21.748Z,2.40
2022-09-01T21:52:50.264Z,2.47
2022-09-01T21:55:22.939Z,2.30
2022-09-01T21:57:51.843Z,2.35
2022-09-01T22:00:23.125Z,2.08
2022-09-01T22:02:51.724Z,2.47
2022-09-01T22:05:20.164Z,2.63
2022-09-01T22:07:48.976Z,2.70
2022-09-01T22:10:22.050Z,2.20
2022-09-01T22:12:51.503Z,2.58
2022-09-01T22:15:22.924Z,2.67
2022-09-01T22:17:52.524Z,2.40
2022-09-01T22:20:28.506Z,2.60
2022-09-01T22:23:02.000Z,2.85
2022-09-01T22:25:33.781Z,2.40
2022-09-01T22:30:31.984Z,2.60
2022-09-01T22:33:01.689Z,2.80
2022-09-01T22:35:30.293Z,2.50
2022-09-01T22:37:58.580Z,2.75
2022-09-01T22:40:26.934Z,2.55
2022-09-01T22:42:56.594Z,2.65
2022-09-01T22:45:24.877Z,2.47
2022-09-01T22:47:53.132Z,2.50
2022-09-01T22:50:21.553Z,2.80
2022-09-01T22:52:49.775Z,2.55
2022-09-01T22:55:18.500Z,2.50
2022-09-01T22:57:46.722Z,2.47
2022-09-01T23:00:17.197Z,2.60
2022-09-01T23:02:45.991Z,2.92
2022-09-01T23:05:14.270Z,2.63
2022-09-01T23:07:42.521Z,2.78
2022-09-01T23:10:11.290Z,2.28
2022-09-01T23:12:39.610Z,2.70
2022-09-01T23:15:09.490Z,2.75
2022-09-01T23:17:39.839Z,2.97
2022-09-01T23:20:12.986Z,2.60
2022-09-01T23:22:42.080Z,2.63
2022-09-01T23:25:12.020Z,2.40
2022-09-01T23:27:40.680Z,2.60
2022-09-01T23:30:12.031Z,2.97
2022-09-01T23:32:42.103Z,2.55
2022-09-01T23:35:11.957Z,2.45
2022-09-01T23:37:40.253Z,2.35
2022-09-01T23:40:10.423Z,2.50
2022-09-01T23:42:39.204Z,2.75
2022-09-01T23:45:08.234Z,2.50
2022-09-01T23:47:36.697Z,2.47
2022-09-01T23:50:07.827Z,2.60
2022-09-01T23:52:36.187Z,2.45
2022-09-01T23:55:04.860Z,2.83
2022-09-01T23:57:33.656Z,2.83
